map of PSM home
PSM - Airport
Location
City:  Portsmouth, New Hampshire, United States
Name:Pease International Airport
ICAO:KPSM
IATA:PSM
FAA LID:PSM

Details
Type:Airport (Part 139 Class I)
Use:Public/Civil, International (customs landing rights)
Latitude:4304'41"N (43.077944)
Longitude:7049'24"W (-70.823277)
Datum:WGS 1984
Elevation:100 ft (30 m)
Variation:14.77W (WMM2015v2 magnetic declination)
0.09 annual change
Runways:1
Longest:11322 × 150 ft (3451 × 45.5 m), paved

Time
Time Zone:UTC-5 (DST-4)
Local Time:

Weather
METAR:KPSM 041356Z 19005KT 7SM BKN080 BKN250 03/M00 A3000 RMK AO2A SLP162 T00341002
TAF:KPSM 041120Z 0412/0512 VRB05KT P6SM BKN100

Related Locations
Nearby:
Farthest:YAUG: 11749 mi / 18907 km
Augusta [Augusta Airport], WA, AU

Find:

   beyond  
but within

Other Information
Maps:
NOTAMs:
Links:
Sources:

  
  • flag of United States
  • flag of New Hampshire
  

Airport Diagram

Airport diagram for PSM

Airport diagram PDF from FAA

Sectional Chart

Flight Planning
at skyvector.com

Satellite Image

Google Maps Satellite view

 

Copyright © 2004-2019 Karl L. Swartz. All rights reserved.
The Great Circle Mapper name and logo are trademarks of the Great Circle Mapper.
All other trademarks mentioned herein belong to their respective owners.
Please see credits for attibutions and further copyright information.

  Follow gcmap on Facebook Follow gcmap on Twitter GCmap on LinkedIn

hCard Microformat

Geo Microformat